createdAt,value
2023-01-02T00:00:08.214Z,10.27
2023-01-02T00:02:36.356Z,8.73
2023-01-02T00:05:08.000Z,9.13
2023-01-02T00:07:38.835Z,8.07
2023-01-02T00:10:07.582Z,9.43
2023-01-02T00:12:35.746Z,8.60
2023-01-02T00:15:04.765Z,8.00
2023-01-02T00:17:34.369Z,7.47
2023-01-02T00:20:02.664Z,7.67
2023-01-02T00:22:30.899Z,7.10
2023-01-02T00:24:59.003Z,7.70
2023-01-02T00:27:27.118Z,6.80
2023-01-02T00:29:55.156Z,6.20
2023-01-02T00:32:23.272Z,6.60
2023-01-02T00:34:53.019Z,6.40
2023-01-02T00:37:20.983Z,5.80
2023-01-02T00:39:48.995Z,6.20
2023-01-02T00:42:17.020Z,7.30
2023-01-02T00:44:45.264Z,5.77
2023-01-02T00:47:13.270Z,4.73
2023-01-02T00:49:41.209Z,5.30
2023-01-02T00:52:10.757Z,5.47
2023-01-02T00:54:38.780Z,4.20
2023-01-02T00:57:06.831Z,4.33
2023-01-02T00:59:34.959Z,4.17
2023-01-02T01:02:03.019Z,4.37
2023-01-02T01:04:34.342Z,3.50
2023-01-02T01:07:02.416Z,3.10
2023-01-02T01:09:31.894Z,3.30
2023-01-02T01:12:02.310Z,3.50
2023-01-02T01:14:32.802Z,2.97
2023-01-02T01:17:01.295Z,3.70
2023-01-02T01:19:30.700Z,3.70
2023-01-02T01:21:58.682Z,2.90
2023-01-02T01:24:26.740Z,2.70
2023-01-02T01:26:56.176Z,6.10
2023-01-02T01:29:24.277Z,3.80
2023-01-02T01:31:52.318Z,2.20
2023-01-02T01:34:20.392Z,2.13
2023-01-02T01:36:48.342Z,1.90
2023-01-02T01:39:16.365Z,1.90
2023-01-02T01:41:44.347Z,1.90
2023-01-02T01:44:42.396Z,1.70
2023-01-02T01:47:19.936Z,1.50
2023-01-02T01:49:50.833Z,1.77
2023-01-02T01:52:21.984Z,1.63
2023-01-02T01:54:56.220Z,2.13
2023-01-02T01:57:29.367Z,2.10
2023-01-02T02:00:01.041Z,1.33
2023-01-02T02:02:30.911Z,1.77
2023-01-02T02:05:03.645Z,1.30
2023-01-02T02:07:32.178Z,1.30
2023-01-02T02:10:05.009Z,1.03
2023-01-02T02:12:34.741Z,1.37
2023-01-02T02:15:04.867Z,1.47
2023-01-02T02:17:45.403Z,1.30
2023-01-02T02:20:27.989Z,1.77
2023-01-02T02:23:33.430Z,1.40
2023-01-02T02:26:45.467Z,1.37
2023-01-02T02:29:56.572Z,1.77
2023-01-02T02:32:35.384Z,1.80
2023-01-02T02:35:12.209Z,1.90
2023-01-02T02:37:51.670Z,2.60
2023-01-02T02:40:38.683Z,1.50
2023-01-02T02:43:21.199Z,2.50
2023-01-02T02:45:59.608Z,2.43
2023-01-02T02:48:42.999Z,2.67
2023-01-02T02:51:20.695Z,3.50
2023-01-02T02:53:56.075Z,2.40
2023-01-02T02:56:28.587Z,3.17
2023-01-02T02:58:57.527Z,2.20
2023-01-02T03:01:30.524Z,1.53
2023-01-02T03:04:00.397Z,1.70
2023-01-02T03:06:50.489Z,1.27
2023-01-02T03:09:24.309Z,1.40
2023-01-02T03:11:59.542Z,1.40
2023-01-02T03:14:34.462Z,1.40
2023-01-02T03:17:05.183Z,1.30
2023-01-02T03:19:39.663Z,1.27
2023-01-02T03:22:12.999Z,1.50
2023-01-02T03:24:43.521Z,1.60
2023-01-02T03:27:16.562Z,1.50
2023-01-02T03:29:46.618Z,1.50
2023-01-02T03:32:20.248Z,1.60
2023-01-02T03:34:50.223Z,1.33
2023-01-02T03:37:21.988Z,1.20
2023-01-02T03:39:56.137Z,1.23
2023-01-02T03:42:29.126Z,1.47
2023-01-02T03:45:03.689Z,1.10
2023-01-02T03:47:38.936Z,1.40
2023-01-02T03:50:13.473Z,1.27
2023-01-02T03:52:41.748Z,1.10
2023-01-02T03:55:10.472Z,0.80
2023-01-02T03:57:57.197Z,1.10
2023-01-02T04:00:36.409Z,1.60
2023-01-02T04:03:10.171Z,1.30
2023-01-02T04:05:46.741Z,1.40
2023-01-02T04:08:20.311Z,1.50
2023-01-02T04:10:58.119Z,1.57
2023-01-02T04:13:31.463Z,1.70
2023-01-02T04:16:01.412Z,1.20
2023-01-02T04:18:41.584Z,1.70
2023-01-02T04:21:21.120Z,1.80
2023-01-02T04:23:53.899Z,2.30
2023-01-02T04:26:26.862Z,1.67
2023-01-02T04:28:55.231Z,2.10
2023-01-02T04:31:33.646Z,2.50
2023-01-02T04:34:03.697Z,2.37
2023-01-02T04:36:39.482Z,3.00
2023-01-02T04:39:07.585Z,2.43
2023-01-02T04:41:37.735Z,2.50
2023-01-02T04:44:06.691Z,2.93
2023-01-02T04:46:34.754Z,2.77
2023-01-02T04:49:02.823Z,2.67
2023-01-02T04:51:32.303Z,2.83
2023-01-02T04:54:00.401Z,2.83
2023-01-02T04:56:28.430Z,2.97
2023-01-02T04:58:56.414Z,3.10
2023-01-02T05:01:24.576Z,2.83
2023-01-02T05:03:53.906Z,2.77
2023-01-02T05:06:22.252Z,3.50
2023-01-02T05:08:51.785Z,3.43
2023-01-02T05:11:22.352Z,3.27
2023-01-02T05:13:50.687Z,3.20
2023-01-02T05:16:18.867Z,3.43
2023-01-02T05:18:46.935Z,4.30
2023-01-02T05:21:29.347Z,3.70
2023-01-02T05:24:00.558Z,3.73
2023-01-02T05:26:30.754Z,3.37
2023-01-02T05:28:58.721Z,3.33
2023-01-02T05:31:28.091Z,3.00
2023-01-02T05:33:57.219Z,3.77
2023-01-02T05:36:26.220Z,3.53
2023-01-02T05:38:54.720Z,3.50
2023-01-02T05:41:24.906Z,4.20
2023-01-02T05:43:52.935Z,4.63
2023-01-02T05:46:22.239Z,4.20
2023-01-02T05:48:50.412Z,4.47
2023-01-02T05:51:19.088Z,4.43
2023-01-02T05:53:47.697Z,5.37
2023-01-02T05:56:18.108Z,4.20
2023-01-02T05:58:49.965Z,5.57
2023-01-02T06:01:19.805Z,5.63
2023-01-02T06:03:48.601Z,5.50
2023-01-02T06:06:18.421Z,5.57
2023-01-02T06:08:46.589Z,5.27
2023-01-02T06:11:15.072Z,5.00
2023-01-02T06:13:43.381Z,5.40
2023-01-02T06:16:13.234Z,6.00
2023-01-02T06:18:41.821Z,5.80
2023-01-02T06:21:11.558Z,5.90
2023-01-02T06:23:40.360Z,4.83
2023-01-02T06:26:10.582Z,5.17
2023-01-02T06:28:39.519Z,5.37
2023-01-02T06:31:09.910Z,5.27
2023-01-02T06:33:39.850Z,3.30
2023-01-02T06:36:09.722Z,3.23
2023-01-02T06:38:38.648Z,2.87
2023-01-02T06:41:08.468Z,2.40
2023-01-02T06:43:37.170Z,2.03
2023-01-02T06:46:06.601Z,2.20
2023-01-02T06:48:35.970Z,2.00
2023-01-02T06:51:07.989Z,1.90
2023-01-02T06:53:40.698Z,1.73
2023-01-02T06:56:10.145Z,1.80
2023-01-02T06:58:39.533Z,1.63
2023-01-02T07:01:11.215Z,2.00
2023-01-02T07:03:40.935Z,1.70
2023-01-02T07:06:12.646Z,1.60
2023-01-02T07:08:41.824Z,1.23
2023-01-02T07:11:12.397Z,1.27
2023-01-02T07:13:41.433Z,1.10
2023-01-02T07:16:11.775Z,1.20
2023-01-02T07:18:39.995Z,1.10
2023-01-02T07:21:10.956Z,1.10
2023-01-02T07:23:39.561Z,1.03
2023-01-02T07:26:08.715Z,1.10
2023-01-02T07:28:37.621Z,0.90
2023-01-02T07:31:07.937Z,0.70
2023-01-02T07:33:36.651Z,0.97
2023-01-02T07:36:07.243Z,1.10
2023-01-02T07:38:38.321Z,1.10
2023-01-02T07:41:06.778Z,1.00
2023-01-02T07:43:34.793Z,1.10
2023-01-02T07:46:06.503Z,0.97
2023-01-02T07:48:34.579Z,0.90
2023-01-02T07:51:03.039Z,0.93
2023-01-02T07:53:31.082Z,0.77
2023-01-02T07:56:01.425Z,1.17
2023-01-02T07:58:31.862Z,1.50
2023-01-02T08:01:05.344Z,1.73
2023-01-02T08:03:34.079Z,1.93
2023-01-02T08:06:07.301Z,2.43
2023-01-02T08:08:35.726Z,1.13
2023-01-02T08:11:13.213Z,1.30
2023-01-02T08:13:42.451Z,1.93
2023-01-02T08:16:12.879Z,1.00
2023-01-02T08:18:41.296Z,1.20
2023-01-02T08:21:10.582Z,1.17
2023-01-02T08:23:39.441Z,1.23
2023-01-02T08:26:10.528Z,1.37
2023-01-02T08:28:41.832Z,1.20
2023-01-02T08:31:11.918Z,1.00
2023-01-02T08:33:40.398Z,0.93
2023-01-02T08:36:09.793Z,1.23
2023-01-02T08:38:38.045Z,1.50
2023-01-02T08:41:08.074Z,1.30
2023-01-02T08:43:36.696Z,1.50
2023-01-02T08:46:05.851Z,1.10
2023-01-02T08:48:34.146Z,1.10
2023-01-02T08:51:02.367Z,1.27
2023-01-02T08:53:30.406Z,1.40
2023-01-02T08:56:25.160Z,1.40
2023-01-02T08:58:54.546Z,1.33
2023-01-02T09:01:23.605Z,1.13
2023-01-02T09:03:52.323Z,1.47
2023-01-02T09:06:22.370Z,1.20
2023-01-02T09:08:52.403Z,1.77
2023-01-02T09:11:22.793Z,2.40
2023-01-02T09:13:52.794Z,2.30
2023-01-02T09:16:20.973Z,2.20
2023-01-02T09:18:49.435Z,2.10
2023-01-02T09:21:17.690Z,2.30
2023-01-02T09:23:48.492Z,2.00
2023-01-02T09:26:16.665Z,2.90
2023-01-02T09:28:45.691Z,2.07
2023-01-02T09:31:17.920Z,2.17
2023-01-02T09:33:48.085Z,2.00
2023-01-02T09:36:18.119Z,2.30
2023-01-02T09:38:51.165Z,2.30
2023-01-02T09:41:29.380Z,2.20
2023-01-02T09:44:00.720Z,5.80
2023-01-02T09:46:36.819Z,3.90
2023-01-02T09:49:05.792Z,9.73
2023-01-02T09:51:37.799Z,3.80
2023-01-02T09:54:13.008Z,9.17
2023-01-02T09:56:44.702Z,6.27
2023-01-02T09:59:18.876Z,3.47
2023-01-02T10:02:00.368Z,2.13
2023-01-02T10:04:41.834Z,2.90
2023-01-02T10:07:12.477Z,1.80
2023-01-02T10:09:52.002Z,1.80
2023-01-02T10:12:28.203Z,1.30
2023-01-02T10:15:00.186Z,1.60
2023-01-02T10:17:34.774Z,1.70
2023-01-02T10:20:06.534Z,1.97
2023-01-02T10:22:42.512Z,1.60
2023-01-02T10:25:15.942Z,4.57
2023-01-02T10:27:50.125Z,2.60
2023-01-02T10:30:21.477Z,2.00
2023-01-02T10:32:57.538Z,2.07
2023-01-02T10:35:37.941Z,1.70
2023-01-02T10:38:06.487Z,2.00
2023-01-02T10:40:35.030Z,2.13
2023-01-02T10:43:03.473Z,2.47
2023-01-02T10:45:34.182Z,2.30
2023-01-02T10:48:03.779Z,4.20
2023-01-02T10:50:39.183Z,12.63
2023-01-02T10:53:09.373Z,7.73
2023-01-02T10:55:40.747Z,3.13
2023-01-02T10:58:21.730Z,2.80
2023-01-02T11:00:51.336Z,1.90
2023-01-02T11:03:25.330Z,1.53
2023-01-02T11:05:54.994Z,1.57
2023-01-02T11:08:25.486Z,2.00
2023-01-02T11:10:53.729Z,2.50
2023-01-02T11:13:23.157Z,4.73
2023-01-02T11:15:54.074Z,3.07
2023-01-02T11:18:27.092Z,2.20
2023-01-02T11:21:04.176Z,4.10
2023-01-02T11:23:36.821Z,3.80
2023-01-02T11:26:09.708Z,2.40
2023-01-02T11:28:42.137Z,2.10
2023-01-02T11:31:12.278Z,1.77
2023-01-02T11:33:43.290Z,2.23
2023-01-02T11:36:19.510Z,1.70
2023-01-02T11:38:49.822Z,2.10
2023-01-02T11:41:48.235Z,3.90
2023-01-02T11:44:22.823Z,4.77
2023-01-02T11:46:52.134Z,5.40
2023-01-02T11:49:25.180Z,3.37
2023-01-02T11:51:57.491Z,2.43
2023-01-02T11:54:38.398Z,22.53
2023-01-02T11:57:18.453Z,3.80
2023-01-02T11:59:54.659Z,6.40
2023-01-02T12:02:36.236Z,2.33
2023-01-02T12:05:11.317Z,2.37
2023-01-02T12:07:45.512Z,2.80
2023-01-02T12:10:28.700Z,1.70
2023-01-02T12:13:09.614Z,1.90
2023-01-02T12:16:14.100Z,1.73
2023-01-02T12:19:02.120Z,3.20
2023-01-02T12:21:43.803Z,2.10
2023-01-02T12:24:33.751Z,1.77
2023-01-02T12:27:09.439Z,1.97
2023-01-02T12:29:55.054Z,1.77
2023-01-02T12:32:55.678Z,1.33
2023-01-02T12:35:50.393Z,1.30
2023-01-02T12:38:33.234Z,1.20
2023-01-02T12:41:15.292Z,1.30
2023-01-02T12:44:10.129Z,1.23
2023-01-02T12:47:05.298Z,1.40
2023-01-02T12:49:54.663Z,1.10
2023-01-02T12:52:35.168Z,1.67
2023-01-02T12:55:21.642Z,3.10
2023-01-02T12:57:56.933Z,1.40
2023-01-02T13:00:57.848Z,1.10
2023-01-02T13:03:42.112Z,1.40
2023-01-02T13:06:43.911Z,1.40
2023-01-02T13:09:07.599Z,1.47
2023-01-02T13:11:42.342Z,1.33
2023-01-02T13:14:16.207Z,2.10
2023-01-02T13:16:48.688Z,4.73
2023-01-02T13:19:22.747Z,10.47
2023-01-02T13:21:55.737Z,15.83
2023-01-02T13:24:27.295Z,6.33
2023-01-02T13:26:58.873Z,3.90
2023-01-02T13:29:40.960Z,2.13
2023-01-02T13:32:13.598Z,3.93
2023-01-02T13:34:50.974Z,6.47
2023-01-02T13:37:23.246Z,4.17
2023-01-02T13:39:53.438Z,4.20
2023-01-02T13:42:43.919Z,5.43
2023-01-02T13:45:15.696Z,8.07
2023-01-02T13:47:50.348Z,51.03
2023-01-02T13:50:26.549Z,19.50
2023-01-02T13:53:15.541Z,31.33
2023-01-02T13:56:02.835Z,20.80
2023-01-02T13:58:53.318Z,59.90
2023-01-02T14:02:05.679Z,30.70
2023-01-02T14:04:41.893Z,2.77
2023-01-02T14:07:44.206Z,1.90
2023-01-02T14:10:20.358Z,2.73
2023-01-02T14:12:53.788Z,16.77
2023-01-02T14:15:27.944Z,52.20
2023-01-02T14:18:04.901Z,8.57
2023-01-02T14:20:35.557Z,28.43
2023-01-02T14:23:10.392Z,21.33
2023-01-02T14:25:48.582Z,17.67
2023-01-02T14:28:24.707Z,11.80
2023-01-02T14:30:55.731Z,9.67
2023-01-02T14:33:32.240Z,6.33
2023-01-02T14:36:06.054Z,9.00
2023-01-02T14:38:40.482Z,21.57
2023-01-02T14:41:31.125Z,2.63
2023-01-02T14:44:00.136Z,2.03
2023-01-02T14:46:32.819Z,1.60
2023-01-02T14:49:25.619Z,4.07
2023-01-02T14:52:00.570Z,1.87
2023-01-02T14:54:34.595Z,3.57
2023-01-02T14:57:09.234Z,8.67
2023-01-02T14:59:42.141Z,8.60
2023-01-02T15:02:23.397Z,2.57
2023-01-02T15:04:55.754Z,2.63
2023-01-02T15:07:27.822Z,2.20
2023-01-02T15:10:02.724Z,4.57
2023-01-02T15:12:50.168Z,7.10
2023-01-02T15:15:20.396Z,4.33
2023-01-02T15:17:51.950Z,6.10
2023-01-02T15:20:22.943Z,5.00
2023-01-02T15:22:53.762Z,4.00
2023-01-02T15:25:33.418Z,2.00
2023-01-02T15:28:01.647Z,4.77
2023-01-02T15:30:32.498Z,3.30
2023-01-02T15:33:02.122Z,2.87
2023-01-02T15:35:32.770Z,2.30
2023-01-02T15:38:01.475Z,10.73
2023-01-02T15:40:33.065Z,2.17
2023-01-02T15:43:21.204Z,4.50
2023-01-02T15:45:51.923Z,7.13
2023-01-02T15:48:23.666Z,9.53
2023-01-02T15:50:54.481Z,6.27
2023-01-02T15:53:29.963Z,4.80
2023-01-02T15:55:59.465Z,7.27
2023-01-02T15:58:30.671Z,6.00
2023-01-02T16:01:19.718Z,5.50
2023-01-02T16:04:02.127Z,6.50
2023-01-02T16:06:34.722Z,5.37
2023-01-02T16:09:05.424Z,9.60
2023-01-02T16:11:35.043Z,7.47
2023-01-02T16:14:20.749Z,6.53
2023-01-02T16:16:52.874Z,17.70
2023-01-02T16:19:28.008Z,4.20
2023-01-02T16:22:17.619Z,2.83
2023-01-02T16:24:48.831Z,3.63
2023-01-02T16:27:25.794Z,4.03
2023-01-02T16:29:55.491Z,3.63
2023-01-02T16:32:29.611Z,3.10
2023-01-02T16:35:05.876Z,2.70
2023-01-02T16:37:39.311Z,3.00
2023-01-02T16:41:00.269Z,5.07
2023-01-02T16:43:27.924Z,5.13
2023-01-02T16:45:56.125Z,5.37
2023-01-02T16:48:30.104Z,5.53
2023-01-02T16:51:00.389Z,5.63
2023-01-02T16:53:31.430Z,6.00
2023-01-02T16:56:01.189Z,6.20
2023-01-02T16:58:32.062Z,6.60
2023-01-02T17:01:00.326Z,7.03
2023-01-02T17:03:29.248Z,7.20
2023-01-02T17:06:02.631Z,7.00
2023-01-02T17:08:32.467Z,7.80
2023-01-02T17:11:01.209Z,6.50
2023-01-02T17:13:30.819Z,6.63
2023-01-02T17:15:59.461Z,6.20
2023-01-02T17:18:30.571Z,5.23
2023-01-02T17:21:00.008Z,5.23
2023-01-02T17:23:31.074Z,6.93
2023-01-02T17:25:59.211Z,6.23
2023-01-02T17:28:27.674Z,8.53
2023-01-02T17:30:55.910Z,8.17
2023-01-02T17:33:24.167Z,9.27
2023-01-02T17:35:52.704Z,7.80
2023-01-02T17:38:22.332Z,14.97
2023-01-02T17:40:50.602Z,8.60
2023-01-02T17:43:18.757Z,9.53
2023-01-02T17:45:49.477Z,15.60
2023-01-02T17:48:23.873Z,7.07
2023-01-02T17:50:53.421Z,5.90
2023-01-02T17:53:23.477Z,8.10
2023-01-02T17:56:20.685Z,9.20
2023-01-02T17:58:42.099Z,6.50
2023-01-02T18:01:18.843Z,6.97
2023-01-02T18:03:53.795Z,6.03
2023-01-02T18:06:22.504Z,4.40
2023-01-02T18:08:54.702Z,4.90
2023-01-02T18:11:23.619Z,3.07
2023-01-02T18:13:55.699Z,2.60
2023-01-02T18:16:27.077Z,3.57
2023-01-02T18:18:55.578Z,4.27
2023-01-02T18:21:29.792Z,3.97
2023-01-02T18:24:02.338Z,3.40
2023-01-02T18:26:35.452Z,3.77
2023-01-02T18:29:09.756Z,4.43
2023-01-02T18:31:42.537Z,4.63
2023-01-02T18:34:47.164Z,4.40
2023-01-02T18:37:20.230Z,4.20
2023-01-02T18:39:50.434Z,6.17
2023-01-02T18:42:20.713Z,6.73
2023-01-02T18:44:50.527Z,6.27
2023-01-02T18:47:26.492Z,6.00
2023-01-02T18:49:55.850Z,7.83
2023-01-02T18:52:29.984Z,7.60
2023-01-02T18:55:02.676Z,6.63
2023-01-02T18:57:34.576Z,7.37
2023-01-02T19:00:16.244Z,7.80
2023-01-02T19:02:54.211Z,8.60
2023-01-02T19:05:26.154Z,9.30
2023-01-02T19:08:02.416Z,9.03
2023-01-02T19:10:37.289Z,8.53
2023-01-02T19:13:08.302Z,9.80
2023-01-02T19:15:42.136Z,10.17
2023-01-02T19:18:36.098Z,10.00
2023-01-02T19:21:18.811Z,10.40
2023-01-02T19:23:54.152Z,12.30
2023-01-02T19:26:30.881Z,12.83
2023-01-02T19:29:01.474Z,12.30
2023-01-02T19:31:41.763Z,12.90
2023-01-02T19:34:36.478Z,14.90
2023-01-02T19:37:35.642Z,13.43
2023-01-02T19:40:08.817Z,13.93
2023-01-02T19:42:40.358Z,14.97
2023-01-02T19:45:12.552Z,13.77
2023-01-02T19:47:41.287Z,14.50
2023-01-02T19:50:12.076Z,14.83
2023-01-02T19:52:40.384Z,17.13
2023-01-02T19:55:10.369Z,18.80
2023-01-02T19:57:40.614Z,18.67
2023-01-02T20:00:12.878Z,19.93
2023-01-02T20:02:42.054Z,19.53
2023-01-02T20:05:13.572Z,18.47
2023-01-02T20:07:44.682Z,17.43
2023-01-02T20:10:13.292Z,16.73
2023-01-02T20:12:42.787Z,16.30
2023-01-02T20:15:13.165Z,16.23
2023-01-02T20:17:41.727Z,16.00
2023-01-02T20:20:13.557Z,13.63
2023-01-02T20:22:43.502Z,14.50
2023-01-02T20:25:12.381Z,12.60
2023-01-02T20:27:41.202Z,10.57
2023-01-02T20:30:12.916Z,11.50
2023-01-02T20:32:41.373Z,11.97
2023-01-02T20:35:10.247Z,11.60
2023-01-02T20:37:38.702Z,11.97
2023-01-02T20:40:08.696Z,11.13
2023-01-02T20:42:37.399Z,10.87
2023-01-02T20:45:06.976Z,12.17
2023-01-02T20:47:37.294Z,12.07
2023-01-02T20:50:06.194Z,13.47
2023-01-02T20:52:34.745Z,13.67
2023-01-02T20:55:03.382Z,14.10
2023-01-02T20:57:32.095Z,15.50
2023-01-02T21:00:00.652Z,15.60
2023-01-02T21:02:29.462Z,15.60
2023-01-02T21:05:02.528Z,14.73
2023-01-02T21:07:30.876Z,16.50
2023-01-02T21:10:01.473Z,15.97
2023-01-02T21:12:47.523Z,13.13
2023-01-02T21:15:30.326Z,12.47
2023-01-02T21:17:58.487Z,10.70
2023-01-02T21:20:28.182Z,11.77
2023-01-02T21:22:56.992Z,16.43
2023-01-02T21:25:25.307Z,16.50
2023-01-02T21:27:53.358Z,17.13
2023-01-02T21:30:21.981Z,14.70
2023-01-02T21:32:50.214Z,14.33
2023-01-02T21:35:18.570Z,13.23
2023-01-02T21:37:48.456Z,14.33
2023-01-02T21:40:16.614Z,13.83
2023-01-02T21:42:45.242Z,11.37
2023-01-02T21:45:14.045Z,12.47
2023-01-02T21:47:42.394Z,13.57
2023-01-02T21:50:11.301Z,13.47
2023-01-02T21:52:39.735Z,12.30
2023-01-02T21:55:10.084Z,15.07
2023-01-02T21:58:11.586Z,14.70
2023-01-02T22:00:29.188Z,13.70
2023-01-02T22:02:57.879Z,14.57
2023-01-02T22:05:26.153Z,12.93
2023-01-02T22:07:56.884Z,11.93
2023-01-02T22:10:26.837Z,10.77
2023-01-02T22:12:54.921Z,12.63
2023-01-02T22:15:23.444Z,12.80
2023-01-02T22:17:51.443Z,12.60
2023-01-02T22:20:19.586Z,14.73
2023-01-02T22:22:47.994Z,15.60
2023-01-02T22:25:16.445Z,15.57
2023-01-02T22:27:46.418Z,14.80
2023-01-02T22:30:22.034Z,14.90
2023-01-02T22:32:53.095Z,14.47
2023-01-02T22:35:21.241Z,14.13
2023-01-02T22:37:49.503Z,13.57
2023-01-02T22:40:17.814Z,12.23
2023-01-02T22:43:05.188Z,12.07
2023-01-02T22:45:37.050Z,12.30
2023-01-02T22:48:09.003Z,12.10
2023-01-02T22:50:45.133Z,13.63
2023-01-02T22:53:24.267Z,12.33
2023-01-02T22:55:52.368Z,17.03
2023-01-02T22:58:22.859Z,13.90
2023-01-02T23:00:56.732Z,24.77
2023-01-02T23:03:25.114Z,19.17
2023-01-02T23:05:53.173Z,21.23
2023-01-02T23:08:21.470Z,44.70
2023-01-02T23:10:49.554Z,22.57
2023-01-02T23:13:17.854Z,14.43
2023-01-02T23:16:04.836Z,14.07
2023-01-02T23:18:56.270Z,14.43
2023-01-02T23:21:27.069Z,15.63
2023-01-02T23:23:55.596Z,15.30
2023-01-02T23:26:26.305Z,14.70
2023-01-02T23:29:10.261Z,11.10
2023-01-02T23:31:42.830Z,14.30
2023-01-02T23:34:12.653Z,11.20
2023-01-02T23:36:42.102Z,12.97
2023-01-02T23:39:17.710Z,13.13
2023-01-02T23:41:46.652Z,11.67
2023-01-02T23:44:15.351Z,10.53
2023-01-02T23:46:45.188Z,10.33
2023-01-02T23:49:13.558Z,9.90
2023-01-02T23:51:41.936Z,9.73
2023-01-02T23:54:12.517Z,9.57
2023-01-02T23:56:43.015Z,10.60
2023-01-02T23:59:13.308Z,13.27
